createdAt,value
2022-12-08T00:01:11.206Z,10.95
2022-12-08T00:03:38.578Z,7.88
2022-12-08T00:06:25.353Z,7.63
2022-12-08T00:09:11.415Z,9.65
2022-12-08T00:14:06.465Z,6.95
2022-12-08T00:16:33.684Z,7.40
2022-12-08T00:19:00.971Z,6.85
2022-12-08T00:21:29.166Z,8.73
2022-12-08T00:23:57.100Z,8.32
2022-12-08T00:26:24.267Z,10.20
2022-12-08T00:28:51.493Z,6.95
2022-12-08T00:31:18.733Z,9.02
2022-12-08T00:33:45.901Z,7.40
2022-12-08T00:36:14.057Z,6.30
2022-12-08T00:38:41.788Z,8.38
2022-12-08T00:41:16.437Z,10.02
2022-12-08T00:43:43.664Z,7.53
2022-12-08T00:46:12.399Z,9.75
2022-12-08T00:48:39.801Z,9.73
2022-12-08T00:51:07.087Z,8.65
2022-12-08T00:53:34.260Z,10.50
2022-12-08T00:56:01.445Z,8.23
2022-12-08T00:58:28.727Z,10.60
2022-12-08T01:00:56.033Z,9.02
2022-12-08T01:03:23.323Z,9.00
2022-12-08T01:05:50.482Z,8.02
2022-12-08T01:08:17.597Z,10.48
2022-12-08T01:10:44.931Z,9.60
2022-12-08T01:13:12.103Z,9.43
2022-12-08T01:15:39.296Z,10.65
2022-12-08T01:18:06.515Z,8.23
2022-12-08T01:20:33.602Z,8.77
2022-12-08T01:23:00.745Z,7.53
2022-12-08T01:25:27.964Z,10.10
2022-12-08T01:27:55.137Z,9.25
2022-12-08T01:30:22.769Z,8.65
2022-12-08T01:32:49.951Z,6.85
2022-12-08T01:35:17.194Z,7.35
2022-12-08T01:37:44.475Z,7.07
2022-12-08T01:40:11.626Z,7.85
2022-12-08T01:42:38.766Z,6.55
2022-12-08T01:45:07.766Z,10.57
2022-12-08T01:47:41.576Z,6.95
2022-12-08T01:50:10.932Z,5.55
2022-12-08T01:52:40.035Z,6.20
2022-12-08T01:55:29.603Z,8.02
2022-12-08T01:57:58.343Z,5.95
2022-12-08T02:00:25.544Z,5.13
2022-12-08T02:03:03.579Z,5.72
2022-12-08T02:05:32.631Z,6.85
2022-12-08T02:08:00.852Z,5.93
2022-12-08T02:10:29.624Z,6.32
2022-12-08T02:12:57.414Z,4.70
2022-12-08T02:15:28.338Z,7.68
2022-12-08T02:18:32.931Z,7.47
2022-12-08T02:21:07.366Z,6.22
2022-12-08T02:23:34.518Z,8.65
2022-12-08T02:26:13.865Z,7.18
2022-12-08T02:28:56.193Z,8.88
2022-12-08T02:31:41.605Z,7.55
2022-12-08T02:34:13.364Z,6.82
2022-12-08T02:36:56.017Z,7.70
2022-12-08T02:39:28.245Z,7.93
2022-12-08T02:42:02.933Z,9.07
2022-12-08T02:44:35.931Z,9.60
2022-12-08T02:47:06.812Z,9.88
2022-12-08T02:49:34.643Z,7.97
2022-12-08T02:52:11.041Z,11.43
2022-12-08T02:54:39.414Z,9.75
2022-12-08T02:57:18.507Z,8.73
2022-12-08T02:59:48.727Z,9.40
2022-12-08T03:02:28.610Z,9.98
2022-12-08T03:05:01.646Z,9.90
2022-12-08T03:07:32.759Z,9.52
2022-12-08T03:10:11.112Z,9.18
2022-12-08T03:12:46.397Z,7.15
2022-12-08T03:15:15.497Z,8.50
2022-12-08T03:17:45.985Z,8.00
2022-12-08T03:20:15.353Z,9.40
2022-12-08T03:22:43.741Z,10.60
2022-12-08T03:25:13.868Z,10.60
2022-12-08T03:27:41.201Z,9.60
2022-12-08T03:30:09.011Z,7.32
2022-12-08T03:32:40.178Z,9.65
2022-12-08T03:35:09.901Z,7.22
2022-12-08T03:37:38.670Z,7.20
2022-12-08T03:40:07.166Z,8.43
2022-12-08T03:42:34.461Z,7.13
2022-12-08T03:45:01.626Z,7.70
2022-12-08T03:47:28.802Z,7.43
2022-12-08T03:49:55.952Z,5.15
2022-12-08T03:52:23.079Z,6.75
2022-12-08T03:54:50.249Z,5.10
2022-12-08T03:57:17.477Z,4.10
2022-12-08T03:59:44.656Z,5.57
2022-12-08T04:02:11.948Z,4.55
2022-12-08T04:04:39.152Z,3.83
2022-12-08T04:07:06.287Z,3.13
2022-12-08T04:09:33.461Z,4.03
2022-12-08T04:12:00.577Z,3.70
2022-12-08T04:14:27.711Z,4.07
2022-12-08T04:16:54.798Z,5.78
2022-12-08T04:19:22.023Z,2.20
2022-12-08T04:21:49.180Z,3.10
2022-12-08T04:24:16.324Z,1.42
2022-12-08T04:26:43.476Z,3.90
2022-12-08T04:29:10.602Z,4.13
2022-12-08T04:31:37.913Z,2.38
2022-12-08T04:34:05.229Z,3.38
2022-12-08T04:36:32.293Z,2.35
2022-12-08T04:38:59.502Z,3.17
2022-12-08T04:41:26.692Z,5.88
2022-12-08T04:43:53.902Z,2.55
2022-12-08T04:46:21.186Z,4.05
2022-12-08T04:48:48.744Z,3.70
2022-12-08T04:51:17.400Z,5.10
2022-12-08T04:53:46.626Z,3.95
2022-12-08T04:56:15.246Z,4.38
2022-12-08T04:58:42.485Z,3.55
2022-12-08T05:01:09.940Z,5.07
2022-12-08T05:03:37.549Z,5.78
2022-12-08T05:06:04.824Z,4.50
2022-12-08T05:08:32.872Z,6.05
2022-12-08T05:11:04.466Z,4.22
2022-12-08T05:13:31.809Z,5.55
2022-12-08T05:16:09.482Z,4.03
2022-12-08T05:18:37.022Z,3.42
2022-12-08T05:21:04.896Z,7.35
2022-12-08T05:23:32.244Z,1.45
2022-12-08T05:25:59.515Z,3.22
2022-12-08T05:28:43.520Z,3.08
2022-12-08T05:31:12.058Z,4.13
2022-12-08T05:33:39.266Z,2.65
2022-12-08T05:36:06.678Z,5.75
2022-12-08T05:38:33.975Z,6.60
2022-12-08T05:41:01.184Z,2.95
2022-12-08T05:43:28.994Z,2.78
2022-12-08T05:45:56.281Z,6.15
2022-12-08T05:48:23.476Z,4.32
2022-12-08T05:50:51.503Z,5.10
2022-12-08T05:53:19.825Z,4.22
2022-12-08T05:55:47.697Z,5.63
2022-12-08T05:58:16.468Z,3.25
2022-12-08T06:00:43.682Z,5.22
2022-12-08T06:03:14.577Z,2.00
2022-12-08T06:05:42.367Z,1.98
2022-12-08T06:08:10.097Z,1.52
2022-12-08T06:10:38.978Z,2.53
2022-12-08T06:13:06.216Z,2.95
2022-12-08T06:15:35.229Z,3.30
2022-12-08T06:18:02.367Z,1.88
2022-12-08T06:22:56.811Z,2.92
2022-12-08T06:25:24.022Z,1.55
2022-12-08T06:27:51.167Z,2.55
2022-12-08T06:30:18.660Z,3.38
2022-12-08T06:32:45.888Z,2.55
2022-12-08T06:35:13.136Z,1.83
2022-12-08T06:37:40.397Z,3.42
2022-12-08T06:40:07.880Z,3.58
2022-12-08T06:42:44.011Z,0.55
2022-12-08T06:45:11.828Z,1.83
2022-12-08T06:47:39.027Z,0.82
2022-12-08T06:50:07.521Z,4.00
2022-12-08T06:52:39.085Z,2.22
2022-12-08T06:55:20.484Z,2.97
2022-12-08T06:57:57.773Z,0.50
2022-12-08T07:00:25.016Z,1.50
2022-12-08T07:02:52.226Z,1.33
2022-12-08T07:05:19.481Z,0.98
2022-12-08T07:07:46.721Z,1.63
2022-12-08T07:10:14.025Z,1.55
2022-12-08T07:12:41.284Z,2.55
2022-12-08T07:15:08.979Z,2.95
2022-12-08T07:17:36.325Z,2.45
2022-12-08T07:20:04.137Z,4.22
2022-12-08T07:22:31.469Z,4.50
2022-12-08T07:24:58.652Z,5.68
2022-12-08T07:27:25.837Z,7.13
2022-12-08T07:29:53.231Z,4.78
2022-12-08T07:32:20.361Z,6.10
2022-12-08T07:34:47.537Z,5.85
2022-12-08T07:37:14.747Z,5.07
2022-12-08T07:39:41.943Z,8.05
2022-12-08T07:42:09.238Z,8.10
2022-12-08T07:44:37.930Z,6.60
2022-12-08T07:47:05.220Z,6.80
2022-12-08T07:49:32.465Z,6.70
2022-12-08T07:51:59.584Z,6.15
2022-12-08T07:54:27.787Z,7.32
2022-12-08T07:56:58.058Z,6.60
2022-12-08T07:59:25.267Z,6.53
2022-12-08T08:02:06.557Z,6.90
2022-12-08T08:04:39.685Z,7.55
2022-12-08T08:07:06.864Z,5.32
2022-12-08T08:09:34.774Z,5.40
2022-12-08T08:12:29.746Z,4.03
2022-12-08T08:14:49.179Z,4.00
2022-12-08T08:17:16.527Z,4.25
2022-12-08T08:19:43.841Z,2.83
2022-12-08T08:22:11.020Z,6.57
2022-12-08T08:24:44.506Z,5.50
2022-12-08T08:27:12.187Z,1.83
2022-12-08T08:29:39.369Z,3.20
2022-12-08T08:32:06.547Z,2.65
2022-12-08T08:34:33.664Z,4.18
2022-12-08T08:37:00.918Z,4.25
2022-12-08T08:39:30.115Z,3.40
2022-12-08T08:41:57.270Z,3.08
2022-12-08T08:44:24.569Z,3.55
2022-12-08T08:46:51.747Z,4.10
2022-12-08T08:49:19.007Z,4.03
2022-12-08T08:51:46.267Z,4.82
2022-12-08T08:54:13.523Z,5.28
2022-12-08T08:56:40.683Z,3.20
2022-12-08T08:59:08.172Z,2.17
2022-12-08T09:01:35.322Z,4.75
2022-12-08T09:04:02.720Z,2.75
2022-12-08T09:06:30.091Z,3.38
2022-12-08T09:08:57.352Z,4.00
2022-12-08T09:11:24.706Z,2.97
2022-12-08T09:13:53.010Z,2.97
2022-12-08T09:16:20.401Z,4.28
2022-12-08T09:18:49.434Z,3.95
2022-12-08T09:21:22.250Z,1.80
2022-12-08T09:23:49.932Z,3.35
2022-12-08T09:26:17.207Z,3.45
2022-12-08T09:28:46.678Z,2.85
2022-12-08T09:31:14.815Z,2.33
2022-12-08T09:33:42.407Z,4.40
2022-12-08T09:36:10.387Z,3.15
2022-12-08T09:38:37.831Z,2.55
2022-12-08T09:41:08.320Z,3.33
2022-12-08T09:43:51.546Z,3.00
2022-12-08T09:46:19.331Z,2.63
2022-12-08T09:48:55.498Z,4.55
2022-12-08T09:51:26.534Z,4.68
2022-12-08T09:54:12.619Z,3.63
2022-12-08T09:59:30.559Z,5.55
2022-12-08T10:01:57.782Z,5.10
2022-12-08T10:04:25.006Z,5.32
2022-12-08T10:06:52.132Z,4.93
2022-12-08T10:09:28.089Z,5.68
2022-12-08T10:12:09.084Z,9.65
2022-12-08T10:14:54.522Z,10.13
2022-12-08T10:17:26.259Z,6.00
2022-12-08T10:19:59.874Z,6.72
2022-12-08T10:22:32.076Z,5.60
2022-12-08T10:25:01.454Z,6.65
2022-12-08T10:27:28.695Z,3.85
2022-12-08T10:29:55.925Z,3.17
2022-12-08T10:32:25.063Z,4.43
2022-12-08T10:35:01.442Z,3.22
2022-12-08T10:37:28.815Z,3.20
2022-12-08T10:40:16.895Z,3.55
2022-12-08T10:42:46.830Z,4.65
2022-12-08T10:45:20.070Z,2.38
2022-12-08T10:47:55.448Z,2.85
2022-12-08T10:50:28.998Z,4.13
2022-12-08T10:53:00.721Z,4.53
2022-12-08T10:55:28.661Z,5.47
2022-12-08T10:57:55.910Z,2.22
2022-12-08T11:00:27.363Z,5.40
2022-12-08T11:02:56.586Z,2.10
2022-12-08T11:05:26.622Z,2.60
2022-12-08T11:07:54.851Z,2.70
2022-12-08T11:10:27.737Z,5.97
2022-12-08T11:12:55.299Z,1.90
2022-12-08T11:15:22.571Z,3.45
2022-12-08T11:18:00.403Z,2.75
2022-12-08T11:20:27.668Z,2.55
2022-12-08T11:22:56.353Z,2.38
2022-12-08T11:25:27.417Z,2.75
2022-12-08T11:27:57.072Z,2.20
2022-12-08T11:30:25.608Z,1.95
2022-12-08T11:32:57.142Z,4.05
2022-12-08T11:35:36.154Z,4.05
2022-12-08T11:38:21.648Z,2.45
2022-12-08T11:40:50.437Z,3.22
2022-12-08T11:43:29.732Z,5.28
2022-12-08T11:46:00.944Z,3.92
2022-12-08T11:48:36.875Z,1.85
2022-12-08T11:51:07.230Z,1.98
2022-12-08T11:53:59.870Z,2.95
2022-12-08T11:56:35.478Z,3.30
2022-12-08T11:59:06.500Z,2.72
2022-12-08T12:01:37.912Z,4.45
2022-12-08T12:04:26.873Z,2.88
2022-12-08T12:07:12.488Z,5.95
2022-12-08T12:09:48.829Z,2.90
2022-12-08T12:12:22.003Z,4.00
2022-12-08T12:15:16.225Z,2.63
2022-12-08T12:17:43.312Z,3.38
2022-12-08T12:20:14.181Z,5.95
2022-12-08T12:22:41.833Z,5.70
2022-12-08T12:25:17.146Z,3.85
2022-12-08T12:27:44.912Z,3.40
2022-12-08T12:30:26.195Z,4.45
2022-12-08T12:32:59.112Z,3.97
2022-12-08T12:35:29.301Z,3.05
2022-12-08T12:37:58.634Z,1.92
2022-12-08T12:40:26.828Z,3.33
2022-12-08T12:42:57.023Z,5.53
2022-12-08T12:45:27.430Z,2.85
2022-12-08T12:48:00.499Z,3.42
2022-12-08T12:50:34.008Z,8.18
2022-12-08T12:53:01.247Z,3.40
2022-12-08T12:55:29.947Z,3.88
2022-12-08T12:57:58.321Z,3.95
2022-12-08T13:00:26.924Z,3.10
2022-12-08T13:02:55.869Z,4.13
2022-12-08T13:05:27.945Z,4.25
2022-12-08T13:08:03.503Z,5.00
2022-12-08T13:10:30.678Z,3.78
2022-12-08T13:13:14.927Z,4.50
2022-12-08T13:15:47.799Z,4.75
2022-12-08T13:18:24.564Z,2.53
2022-12-08T13:20:53.247Z,3.58
2022-12-08T13:23:38.791Z,2.42
2022-12-08T13:26:14.382Z,2.30
2022-12-08T13:29:05.297Z,6.88
2022-12-08T13:31:51.300Z,4.03
2022-12-08T13:34:37.844Z,4.78
2022-12-08T13:37:05.333Z,2.00
2022-12-08T13:39:44.113Z,2.85
2022-12-08T13:42:41.979Z,1.70
2022-12-08T13:45:30.142Z,2.50
2022-12-08T13:57:09.932Z,3.95
2022-12-08T13:59:34.437Z,4.57
2022-12-08T14:02:11.918Z,4.63
2022-12-08T14:05:16.114Z,4.88
2022-12-08T14:07:28.814Z,3.88
2022-12-08T14:09:56.152Z,4.35
2022-12-08T14:12:28.356Z,4.97
2022-12-08T14:15:04.573Z,3.30
2022-12-08T14:17:32.682Z,4.55
2022-12-08T14:20:19.987Z,4.22
2022-12-08T14:22:47.130Z,5.03
2022-12-08T14:25:15.863Z,5.15
2022-12-08T14:27:43.378Z,5.30
2022-12-08T14:30:14.029Z,5.47
2022-12-08T14:32:55.308Z,5.43
2022-12-08T14:35:28.356Z,6.38
2022-12-08T14:37:56.888Z,6.30
2022-12-08T14:40:24.317Z,4.97
2022-12-08T14:43:05.848Z,6.82
2022-12-08T14:45:35.927Z,7.22
2022-12-08T14:48:25.628Z,8.73
2022-12-08T14:50:56.017Z,6.63
2022-12-08T14:53:23.729Z,5.95
2022-12-08T14:55:51.259Z,6.10
2022-12-08T14:58:20.754Z,7.75
2022-12-08T15:00:49.249Z,7.60
2022-12-08T15:03:17.735Z,8.02
2022-12-08T15:05:45.099Z,6.75
2022-12-08T15:08:15.202Z,7.85
2022-12-08T15:10:48.055Z,6.85
2022-12-08T15:13:16.417Z,6.10
2022-12-08T15:16:25.008Z,6.45
2022-12-08T15:19:02.358Z,6.65
2022-12-08T15:21:30.965Z,7.35
2022-12-08T15:23:58.166Z,8.50
2022-12-08T15:26:27.049Z,9.07
2022-12-08T15:28:54.559Z,6.43
2022-12-08T15:31:21.958Z,8.23
2022-12-08T15:33:49.263Z,7.72
2022-12-08T15:36:16.423Z,10.35
2022-12-08T15:38:43.680Z,9.27
2022-12-08T15:41:14.892Z,8.90
2022-12-08T15:43:42.472Z,9.65
2022-12-08T15:46:09.915Z,8.63
2022-12-08T15:48:38.039Z,9.10
2022-12-08T15:51:05.325Z,8.80
2022-12-08T15:53:32.502Z,8.35
2022-12-08T15:56:26.960Z,9.35
2022-12-08T15:58:57.029Z,7.22
2022-12-08T16:01:25.747Z,6.70
2022-12-08T16:09:39.567Z,9.63
2022-12-08T16:12:26.629Z,9.15
2022-12-08T16:17:41.374Z,8.98
2022-12-08T16:20:11.975Z,10.25
2022-12-08T16:23:03.554Z,11.15
2022-12-08T16:25:28.775Z,10.93
2022-12-08T16:28:08.163Z,12.95
2022-12-08T16:30:40.167Z,11.20
2022-12-08T16:33:07.513Z,10.52
2022-12-08T16:35:34.799Z,9.40
2022-12-08T16:38:02.055Z,12.02
2022-12-08T16:40:29.564Z,11.63
2022-12-08T16:42:57.134Z,9.88
2022-12-08T16:45:29.085Z,12.65
2022-12-08T16:48:00.300Z,11.77
2022-12-08T16:50:29.028Z,10.18
2022-12-08T16:52:57.133Z,12.95
2022-12-08T16:55:24.354Z,12.90
2022-12-08T16:57:51.540Z,12.38
2022-12-08T17:00:20.102Z,10.43
2022-12-08T17:02:47.339Z,10.77
2022-12-08T17:05:15.889Z,10.23
2022-12-08T17:07:43.929Z,11.05
2022-12-08T17:10:12.161Z,11.05
2022-12-08T17:12:39.296Z,13.35
2022-12-08T17:15:07.926Z,10.55
2022-12-08T17:17:35.567Z,11.43
2022-12-08T17:20:06.905Z,11.35
2022-12-08T17:22:34.913Z,8.60
2022-12-08T17:25:02.704Z,14.90
2022-12-08T17:27:29.971Z,12.50
2022-12-08T17:29:57.351Z,9.35
2022-12-08T17:32:24.882Z,11.90
2022-12-08T17:34:52.115Z,10.38
2022-12-08T17:37:19.320Z,13.25
2022-12-08T17:39:46.419Z,13.10
2022-12-08T17:42:13.784Z,14.40
2022-12-08T17:44:40.994Z,11.20
2022-12-08T17:47:08.173Z,15.15
2022-12-08T17:49:35.537Z,11.27
2022-12-08T17:52:05.274Z,13.77
2022-12-08T17:54:32.411Z,12.18
2022-12-08T17:56:59.727Z,14.35
2022-12-08T17:59:28.094Z,13.50
2022-12-08T18:01:55.921Z,11.65
2022-12-08T18:04:23.384Z,13.27
2022-12-08T18:06:50.700Z,11.02
2022-12-08T18:09:18.260Z,13.05
2022-12-08T18:11:46.370Z,9.30
2022-12-08T18:14:14.313Z,13.40
2022-12-08T18:16:43.213Z,12.13
2022-12-08T18:19:11.277Z,13.57
2022-12-08T18:21:38.598Z,12.05
2022-12-08T18:24:06.000Z,13.40
2022-12-08T18:26:34.206Z,13.55
2022-12-08T18:29:01.519Z,14.63
2022-12-08T18:31:28.942Z,13.35
2022-12-08T18:33:56.165Z,13.15
2022-12-08T18:36:24.736Z,14.93
2022-12-08T18:38:52.646Z,14.00
2022-12-08T18:41:24.370Z,15.02
2022-12-08T18:43:51.565Z,16.33
2022-12-08T18:46:18.817Z,18.77
2022-12-08T18:48:47.361Z,16.25
2022-12-08T18:51:15.986Z,15.95
2022-12-08T18:53:43.165Z,16.05
2022-12-08T18:56:20.554Z,16.52
2022-12-08T18:58:47.734Z,16.80
2022-12-08T19:01:15.286Z,12.88
2022-12-08T19:03:52.794Z,15.93
2022-12-08T19:06:30.070Z,16.65
2022-12-08T19:08:57.445Z,15.75
2022-12-08T19:11:26.318Z,17.63
2022-12-08T19:13:53.917Z,17.02
2022-12-08T19:16:21.301Z,16.95
2022-12-08T19:18:48.526Z,16.17
2022-12-08T19:21:15.685Z,17.05
2022-12-08T19:26:11.070Z,19.08
2022-12-08T19:28:40.086Z,16.88
2022-12-08T19:31:08.381Z,16.45
2022-12-08T19:33:35.549Z,19.05
2022-12-08T19:36:35.315Z,21.45
2022-12-08T19:39:21.546Z,18.90
2022-12-08T19:47:19.223Z,22.30
2022-12-08T19:49:46.440Z,20.40
2022-12-08T19:52:13.627Z,22.05
2022-12-08T19:54:40.855Z,23.83
2022-12-08T19:57:08.178Z,20.67
2022-12-08T19:59:35.329Z,24.80
2022-12-08T20:02:02.583Z,25.67
2022-12-08T20:04:29.838Z,19.92
2022-12-08T20:09:24.238Z,22.50
2022-12-08T20:11:54.528Z,24.27
2022-12-08T20:14:22.743Z,21.92
2022-12-08T20:16:50.759Z,24.58
2022-12-08T20:19:18.031Z,22.38
2022-12-08T20:21:45.282Z,21.75
2022-12-08T20:24:12.433Z,24.67
2022-12-08T20:26:39.761Z,22.80
2022-12-08T20:29:06.882Z,23.92
2022-12-08T20:31:34.357Z,25.70
2022-12-08T20:34:02.761Z,23.70
2022-12-08T20:36:30.089Z,27.80
2022-12-08T20:38:58.096Z,24.73
2022-12-08T20:41:25.297Z,27.98
2022-12-08T20:43:52.815Z,24.30
2022-12-08T20:46:21.087Z,25.00
2022-12-08T20:48:48.893Z,24.33
2022-12-08T20:51:17.741Z,25.23
2022-12-08T20:53:45.001Z,21.92
2022-12-08T20:56:19.680Z,24.13
2022-12-08T20:58:47.045Z,21.77
2022-12-08T21:01:15.507Z,23.55
2022-12-08T21:03:43.514Z,23.38
2022-12-08T21:06:10.978Z,26.00
2022-12-08T21:08:39.384Z,26.60
2022-12-08T21:11:07.447Z,25.45
2022-12-08T21:13:34.891Z,26.83
2022-12-08T21:16:02.340Z,22.42
2022-12-08T21:18:32.177Z,26.55
2022-12-08T21:21:04.919Z,28.48
2022-12-08T21:23:32.268Z,23.83
2022-12-08T21:25:59.432Z,26.70
2022-12-08T21:28:26.744Z,24.67
2022-12-08T21:30:54.019Z,28.98
2022-12-08T21:33:21.277Z,27.30
2022-12-08T21:35:48.776Z,31.15
2022-12-08T21:38:16.103Z,29.33
2022-12-08T21:40:43.338Z,30.58
2022-12-08T21:43:10.494Z,30.88
2022-12-08T21:45:37.796Z,30.35
2022-12-08T21:48:10.723Z,27.20
2022-12-08T21:50:39.017Z,29.27
2022-12-08T21:53:06.480Z,30.30
2022-12-08T21:55:33.855Z,26.92
2022-12-08T21:58:02.161Z,26.63
2022-12-08T22:00:29.497Z,29.55
2022-12-08T22:02:58.028Z,28.55
2022-12-08T22:05:25.743Z,31.40
2022-12-08T22:07:52.923Z,30.33
2022-12-08T22:10:21.117Z,30.45
2022-12-08T22:12:48.352Z,28.70
2022-12-08T22:15:15.854Z,34.55
2022-12-08T22:17:43.945Z,27.75
2022-12-08T22:20:12.921Z,32.53
2022-12-08T22:22:40.602Z,29.90
2022-12-08T22:25:11.843Z,29.15
2022-12-08T22:27:40.059Z,30.13
2022-12-08T22:30:07.819Z,32.17
2022-12-08T22:32:35.689Z,34.45
2022-12-08T22:35:02.903Z,30.80
2022-12-08T22:37:30.039Z,31.45
2022-12-08T22:39:57.220Z,32.50
2022-12-08T22:42:24.325Z,30.75
2022-12-08T22:44:51.495Z,33.85
2022-12-08T22:47:18.654Z,34.63
2022-12-08T22:49:45.849Z,33.33
2022-12-08T22:52:13.017Z,34.40
2022-12-08T22:54:40.176Z,35.38
2022-12-08T22:57:07.358Z,31.58
2022-12-08T22:59:34.773Z,35.17
2022-12-08T23:02:02.136Z,35.30
2022-12-08T23:04:29.545Z,33.13
2022-12-08T23:06:57.190Z,32.20
2022-12-08T23:09:24.374Z,38.30
2022-12-08T23:11:51.886Z,33.88
2022-12-08T23:14:19.147Z,35.10
2022-12-08T23:16:46.644Z,31.85
2022-12-08T23:19:13.987Z,34.35
2022-12-08T23:21:41.272Z,30.30
2022-12-08T23:24:08.612Z,29.75
2022-12-08T23:26:35.949Z,28.45
2022-12-08T23:29:03.346Z,29.80
2022-12-08T23:31:31.267Z,28.55
2022-12-08T23:33:58.740Z,26.35
2022-12-08T23:36:26.905Z,27.75
2022-12-08T23:38:54.437Z,26.55
2022-12-08T23:41:22.136Z,27.30
2022-12-08T23:43:50.774Z,27.88
2022-12-08T23:46:19.008Z,29.40
2022-12-08T23:48:46.442Z,28.17
2022-12-08T23:51:14.042Z,28.38
2022-12-08T23:53:41.601Z,28.98
2022-12-08T23:56:10.164Z,28.15
2022-12-08T23:58:37.552Z,27.42
